This is the latest recevied weather packets stored in our database for station/object n3uvr. If no packets are shown the sender has not sent any weather packets the latest 10 day(s).
| Time | Temp. | Humidity | Pressure | Rain* | Wind** | Luminosity | Snow |
|---|---|---|---|---|---|---|---|
| 1777693703 | 8.33° C | 87% | 1010.7 hPa | 1.02 mm | - | 0 W/m² | - |
| 1777692498 | 8.33° C | 87% | 1010.8 hPa | 0.51 mm | - | 0 W/m² | - |
| 1777691913 | 8.33° C | 87% | 1010.8 hPa | 0.25 mm | - | 0 W/m² | - |
| 1777691321 | 8.33° C | 87% | 1010.9 hPa | 0.51 mm | - | 0 W/m² | - |
| 1777690707 | 8.33° C | 87% | 1010.9 hPa | 0.51 mm | - | 0 W/m² | - |
| 1777689504 | 8.33° C | 87% | 1011 hPa | 0.76 mm | - | 0 W/m² | - |
| 1777688913 | 8.33° C | 87% | 1011 hPa | 1.02 mm | - | 0 W/m² | - |
| 1777688300 | 8.89° C | 87% | 1011.1 hPa | 1.02 mm | - | 0 W/m² | - |
| 1777687068 | 8.89° C | 86% | 1011 hPa | 0.76 mm | - | 0 W/m² | - |
| 1777685870 | 8.89° C | 85% | 1011 hPa | 0.51 mm | - | 0 W/m² | - |
| 1777685258 | 9.44° C | 84% | 1011.1 hPa | 0.25 mm | - | 0 W/m² | - |
| 1777684638 | 9.44° C | 83% | 1010.9 hPa | 0 mm | - | 0 W/m² | - |
| 1777684045 | 9.44° C | 82% | 1010.8 hPa | 0 mm | - | 0 W/m² | - |
| 1777682263 | 10.56° C | 76% | 1010.6 hPa | 0 mm | - | 0 W/m² | - |
| 1777680457 | 11.67° C | 66% | 1010.1 hPa | 0 mm | - | 0 W/m² | - |
| 1777677421 | 12.22° C | 64% | 1009.7 hPa | 0 mm | - | 46 W/m² | - |
| 1777676826 | 12.22° C | 61% | 1009.7 hPa | 0 mm | - | 70 W/m² | - |
| 1777675634 | 12.78° C | 61% | 1009.7 hPa | 0 mm | - | 60 W/m² | - |
| 1777673793 | 13.33° C | 59% | 1009.6 hPa | 0 mm | - | 76 W/m² | - |
| 1777673210 | 12.78° C | 62% | 1009.6 hPa | 0 mm | - | 125 W/m² | - |
| 1777671996 | 12.78° C | 61% | 1009.6 hPa | 0 mm | - | 128 W/m² | - |
| 1777671394 | 12.78° C | 62% | 1009.6 hPa | 0 mm | - | 135 W/m² | - |
| 1777670794 | 13.33° C | 61% | 1009.6 hPa | 0 mm | - | 76 W/m² | - |
| 1777670174 | 13.33° C | 59% | 1009.6 hPa | 0 mm | - | 100 W/m² | - |
| 1777668402 | 13.89° C | 57% | 1009.2 hPa | 0 mm | - | 65 W/m² | - |
* Rain latest hour (hover to see other rain measurements)
** Current wind speed in m/s (hover to see current wind gust speed)